createdAt,value
2019-03-01T00:01:56.048Z,14.42
2019-03-01T00:06:16.865Z,14.40
2019-03-01T00:11:26.770Z,14.40
2019-03-01T00:16:06.814Z,14.38
2019-03-01T00:20:37.069Z,14.33
2019-03-01T00:24:58.568Z,14.30
2019-03-01T00:29:48.651Z,14.26
2019-03-01T00:34:04.562Z,14.22
2019-03-01T00:38:34.158Z,14.16
2019-03-01T00:43:28.693Z,14.12
2019-03-01T00:47:33.233Z,14.06
2019-03-01T00:51:37.464Z,14.02
2019-03-01T00:55:41.699Z,14.00
2019-03-01T00:59:45.892Z,13.91
2019-03-01T01:03:50.449Z,13.84
2019-03-01T01:07:54.642Z,13.85
2019-03-01T01:11:58.935Z,13.82
2019-03-01T01:16:03.174Z,13.72
2019-03-01T01:20:08.205Z,13.72
2019-03-01T01:24:12.403Z,13.72
2019-03-01T01:28:16.577Z,13.69
2019-03-01T01:32:20.983Z,13.70
2019-03-01T01:36:25.198Z,13.70
2019-03-01T01:40:29.620Z,13.68
2019-03-01T01:44:33.879Z,13.69
2019-03-01T01:48:38.109Z,13.72
2019-03-01T01:52:42.311Z,13.72
2019-03-01T01:56:46.542Z,13.69
2019-03-01T02:00:51.134Z,13.70
2019-03-01T02:04:55.464Z,13.68
2019-03-01T02:08:59.624Z,13.66
2019-03-01T02:13:03.866Z,13.64
2019-03-01T02:17:08.043Z,13.59
2019-03-01T02:21:12.390Z,13.55
2019-03-01T02:25:16.621Z,13.53
2019-03-01T02:29:20.840Z,13.49
2019-03-01T02:33:25.031Z,13.38
2019-03-01T02:37:29.254Z,13.38
2019-03-01T02:41:33.479Z,13.37
2019-03-01T02:45:37.797Z,13.26
2019-03-01T02:49:42.030Z,13.26
2019-03-01T02:53:46.575Z,13.22
2019-03-01T02:57:50.807Z,13.10
2019-03-01T03:01:55.075Z,13.10
2019-03-01T03:06:17.122Z,13.05
2019-03-01T03:10:21.580Z,13.05
2019-03-01T03:14:25.803Z,13.03
2019-03-01T03:18:30.130Z,12.97
2019-03-01T03:22:34.387Z,12.99
2019-03-01T03:26:39.018Z,13.00
2019-03-01T03:30:43.206Z,12.99
2019-03-01T03:34:47.427Z,13.04
2019-03-01T03:38:51.665Z,13.04
2019-03-01T03:42:55.862Z,13.00
2019-03-01T03:47:00.071Z,12.96
2019-03-01T03:51:04.342Z,12.81
2019-03-01T03:55:10.062Z,12.81
2019-03-01T03:59:14.389Z,12.84
2019-03-01T04:03:18.975Z,12.81
2019-03-01T04:07:23.190Z,12.75
2019-03-01T04:11:27.413Z,12.75
2019-03-01T04:15:31.626Z,12.74
2019-03-01T04:19:35.908Z,12.74
2019-03-01T04:23:40.145Z,12.73
2019-03-01T04:27:44.621Z,12.68
2019-03-01T04:31:48.891Z,12.67
2019-03-01T04:35:53.169Z,12.61
2019-03-01T04:39:57.464Z,12.61
2019-03-01T04:44:01.710Z,12.52
2019-03-01T04:48:05.910Z,12.52
2019-03-01T04:52:31.906Z,12.50
2019-03-01T04:56:36.183Z,12.43
2019-03-01T05:00:40.407Z,12.40
2019-03-01T05:04:44.611Z,12.36
2019-03-01T05:08:48.802Z,12.33
2019-03-01T05:12:53.096Z,12.19
2019-03-01T05:16:57.352Z,12.11
2019-03-01T05:21:01.526Z,12.11
2019-03-01T05:25:06.210Z,12.00
2019-03-01T05:29:10.762Z,12.03
2019-03-01T05:33:14.965Z,11.95
2019-03-01T05:37:19.189Z,11.90
2019-03-01T05:41:23.431Z,11.86
2019-03-01T05:45:27.666Z,11.78
2019-03-01T05:49:31.861Z,11.73
2019-03-01T05:53:36.094Z,11.69
2019-03-01T05:58:17.028Z,11.64
2019-03-01T06:02:35.911Z,11.62
2019-03-01T06:07:16.765Z,11.60
2019-03-01T06:11:49.002Z,11.60
2019-03-01T06:16:18.662Z,11.62
2019-03-01T06:21:06.716Z,11.64
2019-03-01T06:25:49.072Z,11.65
2019-03-01T06:30:01.667Z,11.69
2019-03-01T06:34:38.542Z,11.76
2019-03-01T06:39:48.492Z,11.78
2019-03-01T06:44:46.229Z,11.81
2019-03-01T06:48:54.983Z,11.81
2019-03-01T06:52:59.213Z,11.82
2019-03-01T06:57:03.446Z,11.86
2019-03-01T07:01:11.722Z,11.93
2019-03-01T07:05:15.940Z,12.00
2019-03-01T07:09:20.135Z,12.03
2019-03-01T07:13:24.391Z,12.09
2019-03-01T07:17:28.931Z,12.12
2019-03-01T07:21:33.125Z,12.18
2019-03-01T07:25:37.339Z,12.26
2019-03-01T07:29:41.550Z,12.33
2019-03-01T07:33:45.751Z,12.47
2019-03-01T07:37:50.003Z,12.66
2019-03-01T07:41:54.217Z,12.68
2019-03-01T07:45:58.503Z,12.68
2019-03-01T07:50:02.701Z,12.71
2019-03-01T07:54:06.927Z,12.69
2019-03-01T07:58:11.145Z,12.69
2019-03-01T08:02:15.368Z,12.63
2019-03-01T08:06:19.540Z,12.66
2019-03-01T08:10:23.787Z,12.71
2019-03-01T08:14:31.283Z,12.71
2019-03-01T08:18:33.965Z,12.78
2019-03-01T08:22:48.086Z,12.78
2019-03-01T08:26:44.173Z,12.73
2019-03-01T08:30:48.366Z,12.79
2019-03-01T08:34:53.680Z,12.79
2019-03-01T08:39:00.997Z,12.81
2019-03-01T08:43:04.495Z,12.83
2019-03-01T08:47:08.951Z,12.83
2019-03-01T08:51:13.179Z,12.85
2019-03-01T08:55:18.520Z,12.92
2019-03-01T08:59:22.710Z,12.97
2019-03-01T09:03:34.042Z,13.06
2019-03-01T09:07:38.234Z,13.07
2019-03-01T09:11:44.740Z,13.09
2019-03-01T09:15:49.461Z,13.04
2019-03-01T09:19:57.191Z,13.09
2019-03-01T09:24:00.542Z,13.08
2019-03-01T09:28:05.418Z,13.13
2019-03-01T09:32:09.647Z,13.12
2019-03-01T09:36:21.469Z,13.17
2019-03-01T09:40:28.848Z,13.21
2019-03-01T09:44:34.617Z,13.21
2019-03-01T09:48:37.653Z,13.24
2019-03-01T09:52:41.880Z,13.28
2019-03-01T09:56:46.112Z,13.23
2019-03-01T10:00:56.621Z,13.26
2019-03-01T10:05:00.623Z,13.47
2019-03-01T10:09:10.664Z,13.60
2019-03-01T10:13:14.887Z,13.66
2019-03-01T10:17:19.341Z,13.81
2019-03-01T10:21:23.762Z,13.94
2019-03-01T10:25:27.943Z,14.01
2019-03-01T10:29:32.152Z,14.04
2019-03-01T10:33:36.452Z,14.03
2019-03-01T10:37:40.777Z,14.09
2019-03-01T10:41:45.127Z,14.09
2019-03-01T10:45:49.673Z,14.03
2019-03-01T10:49:53.860Z,14.08
2019-03-01T10:53:58.067Z,14.11
2019-03-01T10:58:02.248Z,14.11
2019-03-01T11:02:06.535Z,14.12
2019-03-01T11:06:11.043Z,14.14
2019-03-01T11:10:17.588Z,14.23
2019-03-01T11:14:21.816Z,14.28
2019-03-01T11:18:26.026Z,14.24
2019-03-01T11:22:30.242Z,14.18
2019-03-01T11:26:34.469Z,14.16
2019-03-01T11:30:38.708Z,14.21
2019-03-01T11:34:42.982Z,14.25
2019-03-01T11:38:47.209Z,14.15
2019-03-01T11:42:51.428Z,14.10
2019-03-01T11:46:55.619Z,14.05
2019-03-01T11:50:59.905Z,13.93
2019-03-01T11:55:04.251Z,13.98
2019-03-01T11:59:08.484Z,14.08
2019-03-01T12:03:12.757Z,14.11
2019-03-01T12:07:16.943Z,14.12
2019-03-01T12:11:21.305Z,14.10
2019-03-01T12:15:25.493Z,14.07
2019-03-01T12:19:29.741Z,13.99
2019-03-01T12:23:33.972Z,13.92
2019-03-01T12:27:38.598Z,14.02
2019-03-01T12:31:42.904Z,14.17
2019-03-01T12:35:47.099Z,14.16
2019-03-01T12:39:52.126Z,14.21
2019-03-01T12:43:56.302Z,14.24
2019-03-01T12:48:00.549Z,14.26
2019-03-01T12:52:05.151Z,14.34
2019-03-01T12:56:09.331Z,14.27
2019-03-01T13:00:16.218Z,14.17
2019-03-01T13:04:20.408Z,14.17
2019-03-01T13:08:24.664Z,14.14
2019-03-01T13:12:28.865Z,14.13
2019-03-01T13:16:33.126Z,14.10
2019-03-01T13:20:38.161Z,14.00
2019-03-01T13:24:42.476Z,13.97
2019-03-01T13:28:47.251Z,14.04
2019-03-01T13:32:54.840Z,13.93
2019-03-01T13:36:58.490Z,13.78
2019-03-01T13:41:03.046Z,13.64
2019-03-01T13:45:08.398Z,13.47
2019-03-01T13:49:12.599Z,13.44
2019-03-01T13:53:16.865Z,13.49
2019-03-01T13:57:21.133Z,13.60
2019-03-01T14:01:27.067Z,13.59
2019-03-01T14:05:31.319Z,13.62
2019-03-01T14:09:35.505Z,13.67
2019-03-01T14:13:39.735Z,13.53
2019-03-01T14:17:44.024Z,13.51
2019-03-01T14:21:48.258Z,13.58
2019-03-01T14:25:54.549Z,13.63
2019-03-01T14:29:58.420Z,13.61
2019-03-01T14:34:02.652Z,13.52
2019-03-01T14:38:08.344Z,13.45
2019-03-01T14:42:12.603Z,13.39
2019-03-01T14:46:17.667Z,13.33
2019-03-01T14:50:23.681Z,13.34
2019-03-01T14:54:27.923Z,13.33
2019-03-01T14:58:36.278Z,13.32
2019-03-01T15:03:19.633Z,13.22
2019-03-01T15:07:23.870Z,13.28
2019-03-01T15:11:28.385Z,13.26
2019-03-01T15:15:32.937Z,13.22
2019-03-01T15:19:37.548Z,13.15
2019-03-01T15:23:41.782Z,13.07
2019-03-01T15:27:45.966Z,13.00
2019-03-01T15:31:51.091Z,13.00
2019-03-01T15:35:56.148Z,12.98
2019-03-01T15:40:00.521Z,12.97
2019-03-01T15:44:04.755Z,12.90
2019-03-01T15:48:08.990Z,12.81
2019-03-01T15:52:13.903Z,12.71
2019-03-01T15:56:18.870Z,12.52
2019-03-01T16:00:25.540Z,12.34
2019-03-01T16:04:30.405Z,12.18
2019-03-01T16:08:36.896Z,12.04
2019-03-01T16:12:40.927Z,11.97
2019-03-01T16:16:45.780Z,11.90
2019-03-01T16:20:51.642Z,11.85
2019-03-01T16:24:55.881Z,11.80
2019-03-01T16:29:00.127Z,11.65
2019-03-01T16:33:04.397Z,11.57
2019-03-01T16:37:08.598Z,11.46
2019-03-01T16:41:13.765Z,11.38
2019-03-01T16:45:21.111Z,11.30
2019-03-01T16:49:27.191Z,11.25
2019-03-01T16:53:30.228Z,11.20
2019-03-01T16:57:34.460Z,11.15
2019-03-01T17:01:40.641Z,11.09
2019-03-01T17:05:44.605Z,11.06
2019-03-01T17:09:51.358Z,11.05
2019-03-01T17:13:54.938Z,11.05
2019-03-01T17:17:59.151Z,11.04
2019-03-01T17:22:03.343Z,11.05
2019-03-01T17:26:07.595Z,11.06
2019-03-01T17:30:15.067Z,11.07
2019-03-01T17:34:21.843Z,11.06
2019-03-01T17:38:26.417Z,11.04
2019-03-01T17:42:30.644Z,11.02
2019-03-01T17:46:35.175Z,11.02
2019-03-01T17:50:41.722Z,10.90
2019-03-01T17:54:45.426Z,10.79
2019-03-01T17:58:49.663Z,10.75
2019-03-01T18:02:53.934Z,10.73
2019-03-01T18:06:58.197Z,10.68
2019-03-01T18:11:05.429Z,10.63
2019-03-01T18:15:12.355Z,10.55
2019-03-01T18:19:16.430Z,10.44
2019-03-01T18:23:20.660Z,10.39
2019-03-01T18:27:24.888Z,10.36
2019-03-01T18:31:34.545Z,10.32
2019-03-01T18:35:35.077Z,10.30
2019-03-01T18:39:41.129Z,10.28
2019-03-01T18:43:45.856Z,10.24
2019-03-01T18:47:51.620Z,10.23
2019-03-01T18:51:55.845Z,10.15
2019-03-01T18:56:00.074Z,10.14
2019-03-01T19:00:06.633Z,10.13
2019-03-01T19:04:12.990Z,10.11
2019-03-01T19:08:16.900Z,10.09
2019-03-01T19:12:21.084Z,10.07
2019-03-01T19:16:28.432Z,10.06
2019-03-01T19:20:31.617Z,10.05
2019-03-01T19:24:42.899Z,10.05
2019-03-01T19:28:41.844Z,10.07
2019-03-01T19:32:46.088Z,10.02
2019-03-01T19:36:50.518Z,10.01
2019-03-01T19:40:54.846Z,10.01
2019-03-01T19:45:00.796Z,9.97
2019-03-01T19:49:05.352Z,9.97
2019-03-01T19:53:09.585Z,9.93
2019-03-01T19:57:13.821Z,9.93
2019-03-01T20:01:18.598Z,9.93
2019-03-01T20:05:27.794Z,9.95
2019-03-01T20:09:30.452Z,9.95
2019-03-01T20:13:35.255Z,9.97
2019-03-01T20:17:44.440Z,10.00
2019-03-01T20:21:45.820Z,10.02
2019-03-01T20:25:51.049Z,10.01
2019-03-01T20:29:56.048Z,10.02
2019-03-01T20:34:01.898Z,10.03
2019-03-01T20:38:06.362Z,10.02
2019-03-01T20:42:10.807Z,10.03
2019-03-01T20:46:15.435Z,10.04
2019-03-01T20:50:19.642Z,10.09
2019-03-01T20:54:25.832Z,10.11
2019-03-01T20:58:29.848Z,10.14
2019-03-01T21:02:34.085Z,10.12
2019-03-01T21:06:40.562Z,10.15
2019-03-01T21:10:46.815Z,10.16
2019-03-01T21:14:50.557Z,10.16
2019-03-01T21:18:55.139Z,10.15
2019-03-01T21:22:59.333Z,10.18
2019-03-01T21:27:03.766Z,10.21
2019-03-01T21:31:08.178Z,10.20
2019-03-01T21:35:13.883Z,10.22
2019-03-01T21:39:20.646Z,10.22
2019-03-01T21:43:24.518Z,10.25
2019-03-01T21:47:29.406Z,10.25
2019-03-01T21:51:34.885Z,10.24
2019-03-01T21:55:39.176Z,10.22
2019-03-01T21:59:43.435Z,10.21
2019-03-01T22:03:47.636Z,10.18
2019-03-01T22:07:51.871Z,10.15
2019-03-01T22:11:56.069Z,10.15
2019-03-01T22:16:00.993Z,10.15
2019-03-01T22:20:08.990Z,10.13
2019-03-01T22:24:12.977Z,10.11
2019-03-01T22:28:17.275Z,10.09
2019-03-01T22:32:21.460Z,10.09
2019-03-01T22:36:25.724Z,10.09
2019-03-01T22:40:29.921Z,10.06
2019-03-01T22:44:36.534Z,10.03
2019-03-01T22:48:46.791Z,9.99
2019-03-01T22:52:46.064Z,9.96
2019-03-01T22:56:50.299Z,9.92
2019-03-01T23:01:24.864Z,9.87
2019-03-01T23:05:29.404Z,9.84
2019-03-01T23:09:33.622Z,9.83
2019-03-01T23:13:37.838Z,9.81
2019-03-01T23:17:42.089Z,9.76
2019-03-01T23:21:46.687Z,9.72
2019-03-01T23:25:50.932Z,9.69
2019-03-01T23:29:55.168Z,9.65
2019-03-01T23:33:59.483Z,9.56
2019-03-01T23:38:03.679Z,9.48
2019-03-01T23:42:07.964Z,9.42
2019-03-01T23:46:12.512Z,9.35
2019-03-01T23:50:16.847Z,9.27
2019-03-01T23:54:21.027Z,9.19
2019-03-01T23:58:25.608Z,9.11
